Buoy 13516

sailwx.info

Track history (hours):
 
Tides and Currents Weather Stations Pressure Air Temp Water Temp Dewpoint Dewpoint Depression Visibility Wind Speed Wind Dir Waves Ship Positions

Ao Chao Yang 13516

Last reported at 2017-Nov-22 10:34 UTC. Time now 2017-Nov-22 11:20 UTC.
Position N 26°17' W 056°59'.

Length 20 m.

Type: Fishing. MMSI: 412469022.

Water temperature 26.7 ° C

Date/timePositionNaut miles runAvg speedWind from/ knotsBaromVisibWave heightAir tempDewpointWater temp
2017-Nov-22 10:34N 26°17' W 056°59'1 4.6 26.7
2017-Nov-22 10:27N 26°17' W 056°58'0 0.0 26.7
2017-Nov-22 10:10N 26°17' W 056°58'0 0.0 26.7
2017-Nov-22 10:04N 26°17' W 056°58'1 1.0 26.7
2017-Nov-22 08:57N 26°17' W 056°57'0 0.0 26.7
2017-Nov-22 08:49N 26°17' W 056°57'110.8 26.7
2017-Nov-22 08:46N 26°17' W 056°56'0 0.0 26.7
2017-Nov-22 07:12N 26°17' W 056°56'323.0 26.7
2017-Nov-22 07:03N 26°16' W 056°53'0 0.0 26.7
2017-Nov-22 02:22N 26°16' W 056°53'0 0.0 26.9
2017-Nov-22 02:18N 26°16' W 056°53'1 6.5 26.9
2017-Nov-22 02:13N 26°16' W 056°52'0 0.0 26.9
2017-Nov-22 01:37N 26°16' W 056°52'0 0.0 26.9
2017-Nov-22 01:31N 26°16' W 056°52'1 1.0 26.9
2017-Nov-22 00:43N 26°15' W 056°52'1 6.9 26.9
2017-Nov-22 00:36N 26°16' W 056°51'0 0.0 26.9
2017-Nov-21 23:57N 26°16' W 056°51'0 0.0 26.9
2017-Nov-21 23:54N 26°16' W 056°51'1 6.0 26.9
2017-Nov-21 23:48N 26°16' W 056°51'0 0.0 26.9
2017-Nov-21 23:24N 26°16' W 056°51'116.1 26.9
2017-Nov-21 23:21N 26°16' W 056°50'112.9 26.9
2017-Nov-21 23:16N 26°16' W 056°49'0 0.0 26.9
2017-Nov-21 23:13N 26°16' W 056°49'1 4.0 26.9
2017-Nov-21 22:57N 26°16' W 056°50'1 0.9 26.9
2017-Nov-21 21:48N 26°16' W 056°49'1 4.0 26.9
2017-Nov-21 21:40N 26°16' W 056°50'0 0.0 26.9
2017-Nov-21 21:39N 26°16' W 056°50'1 0.8 26.9
2017-Nov-21 20:22N 26°16' W 056°49'0 0.0 26.9
2017-Nov-21 20:19N 26°16' W 056°49'112.3 26.9
2017-Nov-21 20:13N 26°16' W 056°47'0 0.0 26.9
2017-Nov-21 18:42N 26°16' W 056°47'212.1 26.9
2017-Nov-21 18:34N 26°16' W 056°46'1 0.7 26.9
2017-Nov-21 16:57N 26°16' W 056°44'1 0.4 26.9
2017-Nov-21 15:04N 26°16' W 056°44'0 0.0 26.8
2017-Nov-21 14:22N 26°16' W 056°44'216.1 26.7
2017-Nov-21 14:16N 26°16' W 056°42'0 0.0 26.7
2017-Nov-21 13:37N 26°16' W 056°42'0 0.0 26.7
2017-Nov-21 13:24N 26°16' W 056°42'0 0.0 26.7
2017-Nov-21 12:42N 26°16' W 056°42'1 8.1 26.7
2017-Nov-21 12:36N 26°15' W 056°41'0 0.0 26.7
2017-Nov-21 12:12N 26°15' W 056°41'0 0.0 26.7
2017-Nov-21 11:58N 26°15' W 056°41'118.5 26.7
2017-Nov-21 11:54N 26°14' W 056°40'0 0.0 26.7
2017-Nov-21 11:43N 26°14' W 056°40'0 0.0 26.7
2017-Nov-21 11:04N 26°14' W 056°40'1 5.4 26.6
2017-Nov-21 10:55N 26°15' W 056°40'0 0.0 26.6
2017-Nov-21 10:36N 26°15' W 056°40'1 3.0 26.6
2017-Nov-21 10:24N 26°16' W 056°40'0 0.0 26.6
2017-Nov-21 10:22N 26°16' W 056°40'0 0.0 26.6
2017-Nov-21 10:13N 26°16' W 056°40'1 1.6 26.6
2017-Nov-21 09:27N 26°15' W 056°38'0 0.0 26.6
2017-Nov-21 09:24N 26°15' W 056°38'110.8 26.6
2017-Nov-21 09:21N 26°15' W 056°38'0 0.0 26.6
2017-Nov-21 08:57N 26°15' W 056°38'121.5 26.6
2017-Nov-21 08:54N 26°15' W 056°37'0 0.0 26.6
2017-Nov-21 08:49N 26°15' W 056°37'0 0.0 26.6
2017-Nov-21 07:45N 26°15' W 056°37'0 0.0 26.6
2017-Nov-21 07:24N 26°15' W 056°37'0 0.0 26.6
2017-Nov-21 07:18N 26°15' W 056°37'334.4 26.6
2017-Nov-21 07:12N 26°16' W 056°33'0 0.0 26.6
2017-Nov-21 02:42N 26°16' W 056°33'116.1 26.6
2017-Nov-21 02:39N 26°16' W 056°32'1 1.2 26.6
2017-Nov-21 01:57N 26°16' W 056°32'0 0.0 26.6
2017-Nov-21 01:49N 26°16' W 056°32'0 0.0 26.6
2017-Nov-21 00:58N 26°16' W 056°32'148.4 26.6
2017-Nov-21 00:57N 26°17' W 056°31'0 0.0 26.6
2017-Nov-21 00:19N 26°17' W 056°31'1 4.6 26.6
2017-Nov-21 00:12N 26°17' W 056°31'0 0.0 26.6
2017-Nov-20 23:51N 26°17' W 056°31'0 0.0 26.7
2017-Nov-20 23:33N 26°17' W 056°31'1 6.0 26.6
2017-Nov-20 23:25N 26°17' W 056°30'1 8.1 26.6
2017-Nov-20 23:19N 26°17' W 056°31'116.1 26.6
2017-Nov-20 23:16N 26°17' W 056°30'1 0.5 26.6
2017-Nov-20 22:13N 26°17' W 056°29'1 3.6 26.7
2017-Nov-20 22:04N 26°17' W 056°30'1 3.0 26.7
2017-Nov-20 21:52N 26°18' W 056°30'0 0.0 26.7
2017-Nov-20 21:48N 26°18' W 056°30'110.8 26.7
2017-Nov-20 21:45N 26°18' W 056°29'0 0.0 26.7
2017-Nov-20 20:31N 26°18' W 056°29'1 0.7 26.7
2017-Nov-20 18:54N 26°19' W 056°29'0 0.0 26.7
2017-Nov-20 18:46N 26°19' W 056°29'1 0.4 26.7
2017-Nov-20 17:10N 26°20' W 056°29'0 0.0 26.7
2017-Nov-20 15:24N 26°20' W 056°29'0 0.0 26.7
2017-Nov-20 14:42N 26°20' W 056°29'0 0.0 26.7
2017-Nov-20 14:39N 26°20' W 056°29'0 0.0 26.7
2017-Nov-20 14:34N 26°20' W 056°29'0 0.0 26.7
2017-Nov-20 13:46N 26°20' W 056°29'1 0.7 26.7
2017-Nov-20 12:58N 26°20' W 056°30'1 1.1 26.7
2017-Nov-20 12:13N 26°19' W 056°29'0 0.0 26.7
2017-Nov-20 12:12N 26°19' W 056°29'0 0.0 26.7
2017-Nov-20 12:07N 26°19' W 056°29'0 0.0 26.7
2017-Nov-20 12:03N 26°19' W 056°29'0 0.0 26.7
2017-Nov-20 10:34N 26°19' W 056°29'0 0.0 26.6
2017-Nov-20 10:27N 26°19' W 056°29'1 1.2 26.7
2017-Nov-20 09:57N 26°19' W 056°29'0 0.0 26.7
2017-Nov-20 09:51N 26°19' W 056°29'0 0.0 26.7
2017-Nov-20 09:12N 26°19' W 056°29'112.3 26.6
2017-Nov-20 09:06N 26°18' W 056°28'0 0.0 26.6
2017-Nov-20 08:13N 26°18' W 056°28'1 0.8 26.6
2017-Nov-20 07:31N 26°18' W 056°28'1 8.1 26.6
2017-Nov-20 07:27N 26°18' W 056°28'4 2.6 26.6
2017-Nov-20 05:48N 26°17' W 056°23'0 0.0 26.6
2017-Nov-20 02:13N 26°17' W 056°23'164.6 26.7
2017-Nov-20 02:12N 26°17' W 056°22'0 0.0 26.7
2017-Nov-20 01:25N 26°17' W 056°22'0 0.0 26.6
2017-Nov-20 01:18N 26°17' W 056°22'1 0.8 26.6
2017-Nov-20 00:39N 26°17' W 056°22'1 5.4 26.6
2017-Nov-20 00:33N 26°17' W 056°21'1 1.0 26.6
2017-Nov-19 23:45N 26°18' W 056°20'0 0.0 26.6
2017-Nov-19 23:40N 26°18' W 056°20'121.5 26.6
2017-Nov-19 23:37N 26°18' W 056°19'0 0.0 26.6
2017-Nov-19 22:48N 26°18' W 056°19'1 6.0 26.6
2017-Nov-19 22:40N 26°19' W 056°19'116.1 26.6
2017-Nov-19 22:37N 26°18' W 056°19'1 5.4 26.6
2017-Nov-19 22:28N 26°19' W 056°19'0 0.0 26.6
2017-Nov-19 22:04N 26°19' W 056°19'110.6 26.6
2017-Nov-19 21:57N 26°19' W 056°17'0 0.0 26.6
2017-Nov-19 21:09N 26°19' W 056°17'0 0.0 26.6
2017-Nov-19 20:43N 26°19' W 056°17'5 2.7 26.6
2017-Nov-19 18:58N 26°23' W 056°15'0 0.0 26.6
2017-Nov-19 17:22N 26°23' W 056°15'2 1.0 26.6
2017-Nov-19 14:58N 26°26' W 056°14'1 1.0 26.5
2017-Nov-19 14:09N 26°26' W 056°14'1 9.2 26.5
2017-Nov-19 14:01N 26°27' W 056°15'0 0.0 26.5
2017-Nov-19 13:25N 26°27' W 056°15'1 5.4 26.6
2017-Nov-19 13:19N 26°27' W 056°14'1 1.2 26.6
2017-Nov-19 12:21N 26°28' W 056°14'1 0.8 26.5
2017-Nov-19 10:46N 26°29' W 056°16'0 0.0 26.5
2017-Nov-19 10:40N 26°29' W 056°16'0 0.0 26.5
2017-Nov-19 10:28N 26°29' W 056°16'1 3.6 26.5
2017-Nov-19 10:19N 26°29' W 056°16'0 0.0 26.5
2017-Nov-19 09:46N 26°29' W 056°16'0 0.0 26.4
2017-Nov-19 09:39N 26°29' W 056°16'0 0.0 26.4
2017-Nov-19 09:22N 26°29' W 056°16'0 0.0 26.4
2017-Nov-19 09:18N 26°29' W 056°16'0 0.0 26.4
2017-Nov-19 08:49N 26°29' W 056°16'1 4.6 26.4
2017-Nov-19 08:42N 26°29' W 056°17'1 0.6 26.4
2017-Nov-19 07:43N 26°28' W 056°17'0 0.0 26.5
2017-Nov-19 07:42N 26°28' W 056°17'0 0.0 26.4
2017-Nov-19 07:36N 26°28' W 056°17'0 0.0 26.4
2017-Nov-19 06:03N 26°28' W 056°17'219.3 26.4
2017-Nov-19 05:58N 26°28' W 056°15'0 0.0 26.4
2017-Nov-19 02:33N 26°28' W 056°15'0 0.0
2017-Nov-19 01:45N 26°28' W 056°15'211.5 26.2
2017-Nov-19 01:36N 26°28' W 056°13'0 0.0 26.2
2017-Nov-19 00:58N 26°28' W 056°13'0 0.0 26.2
2017-Nov-19 00:57N 26°28' W 056°13'0 0.0 26.2
2017-Nov-19 00:54N 26°28' W 056°13'0 0.0 26.2
2017-Nov-19 00:04N 26°28' W 056°13'0 0.0 26.2
2017-Nov-19 00:01N 26°28' W 056°13'0 0.0 26.2
2017-Nov-18 23:55N 26°28' W 056°13'0 0.0 26.2
2017-Nov-18 23:49N 26°28' W 056°13'1 0.9 26.2
2017-Nov-18 23:13N 26°28' W 056°13'1 2.1 26.2
2017-Nov-18 22:58N 26°28' W 056°12'1 0.7 26.2
2017-Nov-18 22:13N 26°28' W 056°11'112.1 26.1
2017-Nov-18 22:09N 26°28' W 056°11'1 1.2 26.1
2017-Nov-18 21:40N 26°28' W 056°11'1 1.8 26.1
2017-Nov-18 21:22N 26°28' W 056°10'0 0.0 26.1
2017-Nov-18 21:18N 26°28' W 056°10'1 9.7 26.1
2017-Nov-18 21:13N 26°28' W 056°10'0 0.0 26.1
2017-Nov-18 20:55N 26°28' W 056°10'3 1.6 26.1
2017-Nov-18 19:13N 26°29' W 056°07'0 0.0 26.1
2017-Nov-18 19:12N 26°29' W 056°07'2 1.3 26.1
2017-Nov-18 17:36N 26°30' W 056°05'0 0.0 26.1
2017-Nov-18 17:33N 26°30' W 056°05'4 1.5 26.1
2017-Nov-18 14:30N 26°34' W 056°02'1 9.7 26.1
2017-Nov-18 14:25N 26°34' W 056°01'0 0.0 26.1
2017-Nov-18 13:46N 26°34' W 056°01'0 0.0 26.2
2017-Nov-18 13:42N 26°34' W 056°01'1 1.5 26.2
2017-Nov-18 12:48N 26°35' W 056°02'0 0.0 26.2
2017-Nov-18 12:43N 26°35' W 056°02'0 0.0 26.2
2017-Nov-18 12:40N 26°35' W 056°02'0 0.0 26.2
2017-Nov-18 12:36N 26°35' W 056°02'0 0.0 26.2
2017-Nov-18 12:33N 26°35' W 056°02'0 0.0 26.2
2017-Nov-18 12:03N 26°35' W 056°02'0 0.0 26.2
2017-Nov-18 11:46N 26°35' W 056°02'0 0.0 26.2
2017-Nov-18 10:57N 26°35' W 056°02'1 7.2 26.2
2017-Nov-18 10:52N 26°36' W 056°02'0 0.0 26.2
2017-Nov-18 10:10N 26°36' W 056°02'0 0.0 26.1
2017-Nov-18 10:03N 26°36' W 056°02'0 0.0 26.1
2017-Nov-18 09:34N 26°36' W 056°02'1 8.0 26.1
2017-Nov-18 09:30N 26°36' W 056°02'1 3.6 26.1
2017-Nov-18 09:21N 26°36' W 056°02'1 4.0 26.1
2017-Nov-18 09:13N 26°36' W 056°02'0 0.0 26.1
2017-Nov-18 07:55N 26°36' W 056°02'173.8 26.1
2017-Nov-18 07:54N 26°35' W 056°04'1 3.2 26.1
2017-Nov-18 07:39N 26°36' W 056°03'1 0.6 26.1
2017-Nov-18 06:13N 26°35' W 056°04'178.9 26.1
2017-Nov-18 06:12N 26°37' W 056°04'3 0.6 26.1
2017-Nov-18 02:06N 26°34' W 056°05'0 0.0 26.2
2017-Nov-18 01:58N 26°34' W 056°05'1 1.6 26.2
2017-Nov-18 01:13N 26°34' W 056°07'1 0.7 26.2
2017-Nov-18 00:25N 26°34' W 056°06'1 6.0 26.1
2017-Nov-18 00:19N 26°33' W 056°06'0 0.0 26.1
2017-Nov-18 00:07N 26°33' W 056°06'0 0.0 26.2
2017-Nov-18 00:01N 26°33' W 056°06'1 2.4 26.2
2017-Nov-17 23:46N 26°32' W 056°06'0 0.0 26.2
2017-Nov-17 23:40N 26°32' W 056°06'0 0.0 26.2
2017-Nov-17 23:37N 26°32' W 056°06'112.1 26.2
2017-Nov-17 23:33N 26°32' W 056°05'0 0.0 26.2
2017-Nov-17 23:24N 26°32' W 056°05'0 0.0 26.2
2017-Nov-17 22:28N 26°32' W 056°05'0 0.0 26.2
2017-Nov-17 22:12N 26°32' W 056°05'110.7 26.2
2017-Nov-17 22:09N 26°32' W 056°05'0 0.0 26.2
2017-Nov-17 21:48N 26°32' W 056°05'211.5 26.2
2017-Nov-17 21:39N 26°31' W 056°03'0 0.0 26.2
2017-Nov-17 21:04N 26°31' W 056°03'0 0.0 26.2
2017-Nov-17 20:30N 26°31' W 056°03'1 2.7 26.2
2017-Nov-17 20:06N 26°31' W 056°02'0 0.0 26.2
2017-Nov-17 19:28N 26°31' W 056°02'0 0.0 26.2
2017-Nov-17 19:25N 26°31' W 056°02'0 0.0 26.2
2017-Nov-17 19:21N 26°31' W 056°02'2 1.0 26.2
2017-Nov-17 17:43N 26°31' W 056°00'3 1.2 26.1
2017-Nov-17 14:51N 26°32' W 055°56'1 9.7 26.2
2017-Nov-17 14:46N 26°33' W 055°56'0 0.0 26.2
2017-Nov-17 14:06N 26°33' W 055°56'0 0.0 26.2
2017-Nov-17 14:03N 26°33' W 055°56'1 8.1 26.2
2017-Nov-17 13:57N 26°34' W 055°55'0 0.0 26.2
2017-Nov-17 13:10N 26°34' W 055°55'0 0.0 26.2
2017-Nov-17 13:06N 26°34' W 055°55'1 1.9 26.2
2017-Nov-17 12:49N 26°34' W 055°55'0 0.0 26.2
2017-Nov-17 12:45N 26°34' W 055°55'0 0.0 26.2
2017-Nov-17 12:25N 26°34' W 055°55'0 0.0 26.2
2017-Nov-17 12:22N 26°34' W 055°55'0 0.0 26.2
2017-Nov-17 12:12N 26°34' W 055°55'1 0.8 26.2
2017-Nov-17 11:10N 26°34' W 055°54'1 4.6 26.3
2017-Nov-17 11:03N 26°34' W 055°53'1 6.4 26.3
2017-Nov-17 10:58N 26°34' W 055°53'0 0.0 26.3
2017-Nov-17 10:36N 26°34' W 055°53'0 0.0 26.3
2017-Nov-17 10:31N 26°34' W 055°53'1 5.1 26.3
2017-Nov-17 10:24N 26°35' W 055°53'0 0.0 26.3
2017-Nov-17 09:52N 26°35' W 055°53'0 0.0 26.3
2017-Nov-17 09:49N 26°35' W 055°53'110.7 26.3
2017-Nov-17 09:43N 26°35' W 055°52'0 0.0 26.3
2017-Nov-17 08:52N 26°35' W 055°52'0 0.0 26.3
2017-Nov-17 08:12N 26°35' W 055°52'0 0.0 26.4
2017-Nov-17 08:07N 26°35' W 055°52'1 8.2 26.4
2017-Nov-17 07:58N 26°35' W 055°50'0 0.0 26.4
2017-Nov-17 06:24N 26°35' W 055°50'221.0 26.4
2017-Nov-17 06:18N 26°37' W 055°49'0 0.0 26.4
2017-Nov-17 02:25N 26°37' W 055°49'1 9.0 26.4
2017-Nov-17 02:21N 26°38' W 055°49'0 0.0 26.4
2017-Nov-17 01:42N 26°38' W 055°49'1 6.0 26.4
2017-Nov-17 01:34N 26°37' W 055°50'1 1.0 26.4
2017-Nov-17 00:48N 26°38' W 055°49'0 0.0 26.5
2017-Nov-17 00:40N 26°38' W 055°49'0 0.0 26.5
2017-Nov-17 00:13N 26°38' W 055°49'136.0 26.4
2017-Nov-17 00:12N 26°38' W 055°49'0 0.0 26.4
2017-Nov-16 23:57N 26°38' W 055°49'0 0.0 26.4
2017-Nov-16 23:54N 26°38' W 055°49'0 0.0 26.4
2017-Nov-16 23:49N 26°38' W 055°49'0 0.0 26.4
2017-Nov-16 23:04N 26°38' W 055°49'0 0.0 26.5
2017-Nov-16 22:58N 26°38' W 055°49'0 0.0 26.5
2017-Nov-16 22:42N 26°38' W 055°49'0 0.0 26.5
2017-Nov-16 22:34N 26°38' W 055°49'0 0.0 26.5
2017-Nov-16 22:33N 26°38' W 055°49'0 0.0 26.5
2017-Nov-16 22:13N 26°38' W 055°49'1 3.6 26.5
2017-Nov-16 22:04N 26°38' W 055°49'0 0.0 26.5
2017-Nov-16 20:58N 26°38' W 055°49'136.0 26.5
2017-Nov-16 20:57N 26°39' W 055°49'1 1.3 26.5
2017-Nov-16 20:33N 26°39' W 055°49'1 0.6 26.5
2017-Nov-16 19:40N 26°39' W 055°49'0 0.0 26.5
2017-Nov-16 19:37N 26°39' W 055°49'1 8.0 26.5
2017-Nov-16 19:33N 26°39' W 055°49'1 0.5 26.5
2017-Nov-16 17:58N 26°40' W 055°49'0 0.0 26.5
2017-Nov-16 17:55N 26°40' W 055°49'1 6.0 26.5
2017-Nov-16 17:49N 26°39' W 055°49'0 0.0 26.5
2017-Nov-16 15:09N 26°39' W 055°49'124.1 26.4
2017-Nov-16 15:07N 26°40' W 055°48'0 0.0 26.4
2017-Nov-16 14:25N 26°40' W 055°48'1 9.0 26.3
2017-Nov-16 14:21N 26°39' W 055°48'0 0.0 26.3
2017-Nov-16 13:30N 26°39' W 055°48'126.3 26.3
2017-Nov-16 13:27N 26°40' W 055°49'1 1.1 26.3
2017-Nov-16 12:58N 26°40' W 055°48'1 3.2 26.3
2017-Nov-16 12:43N 26°40' W 055°49'0 0.0
2017-Nov-16 12:40N 26°40' W 055°49'0 0.0 26.3
2017-Nov-16 11:48N 26°40' W 055°49'1 1.3 26.3
2017-Nov-16 11:21N 26°40' W 055°49'0 0.0 26.3
2017-Nov-16 11:13N 26°40' W 055°49'0 0.0 26.3
2017-Nov-16 10:58N 26°40' W 055°49'0 0.0 26.3
2017-Nov-16 10:22N 26°40' W 055°49'1 4.0 26.2
2017-Nov-16 10:13N 26°41' W 055°49'0 0.0 26.3
2017-Nov-16 09:34N 26°41' W 055°49'0 0.0 26.2
2017-Nov-16 09:13N 26°41' W 055°49'1 1.2 26.3
2017-Nov-16 08:43N 26°41' W 055°49'1 1.1 26.3
2017-Nov-16 08:13N 26°41' W 055°49'148.3 26.3
2017-Nov-16 08:12N 26°42' W 055°50'0 0.0 26.3
2017-Nov-16 06:40N 26°42' W 055°50'0 0.0 26.4
2017-Nov-16 06:36N 26°42' W 055°50'3 0.8 26.4
2017-Nov-16 02:43N 26°41' W 055°53'0 0.0 26.4
2017-Nov-16 01:58N 26°41' W 055°53'0 0.0 26.4
2017-Nov-16 01:55N 26°41' W 055°53'0 0.0 26.4
2017-Nov-16 01:06N 26°41' W 055°53'115.8 26.4
2017-Nov-16 01:01N 26°40' W 055°54'1 1.2 26.4
2017-Nov-16 00:30N 26°41' W 055°54'0 0.0 26.4
2017-Nov-16 00:22N 26°41' W 055°54'1 3.6 26.4
2017-Nov-16 00:13N 26°41' W 055°55'0 0.0 26.4
2017-Nov-15 23:25N 26°41' W 055°55'0 0.0 26.4
2017-Nov-15 23:21N 26°41' W 055°55'0 0.0 26.4
2017-Nov-15 23:12N 26°41' W 055°55'0 0.0 26.4
2017-Nov-15 23:07N 26°41' W 055°55'1 2.4 26.4
2017-Nov-15 22:52N 26°40' W 055°55'0 0.0 26.4
2017-Nov-15 22:48N 26°40' W 055°55'0 0.0 26.4
2017-Nov-15 22:45N 26°40' W 055°55'0 0.0 26.4
2017-Nov-15 22:37N 26°40' W 055°55'1 0.8 26.4
2017-Nov-15 21:34N 26°40' W 055°55'1 3.2 26.4
2017-Nov-15 21:09N 26°38' W 055°55'0 0.0 26.4
2017-Nov-15 20:54N 26°38' W 055°55'0 0.0 26.4
2017-Nov-15 19:49N 26°38' W 055°55'1 5.4 26.4
2017-Nov-15 19:43N 26°38' W 055°55'1 0.8 26.4
2017-Nov-15 18:10N 26°37' W 055°55'1 4.6 26.4
2017-Nov-15 18:03N 26°37' W 055°55'1 0.2 26.4
2017-Nov-15 15:27N 26°37' W 055°55'1 0.7 26.4
2017-Nov-15 14:42N 26°37' W 055°54'1 9.7 26.4
2017-Nov-15 14:37N 26°36' W 055°55'0 0.0 26.4
2017-Nov-15 13:52N 26°36' W 055°55'0 0.0 26.4
2017-Nov-15 13:51N 26°36' W 055°55'0 0.0 26.4
2017-Nov-15 13:10N 26°36' W 055°55'0 0.0 26.4
2017-Nov-15 13:03N 26°36' W 055°55'0 0.0 26.4
2017-Nov-15 12:58N 26°36' W 055°55'1 0.7 26.4
2017-Nov-15 12:09N 26°36' W 055°55'1 9.7 26.4
2017-Nov-15 12:04N 26°35' W 055°55'0 0.0 26.4
2017-Nov-15 11:33N 26°35' W 055°55'0 0.0 26.4
2017-Nov-15 11:30N 26°35' W 055°55'0 0.0 26.4
2017-Nov-15 11:24N 26°35' W 055°55'1 1.5 26.4
2017-Nov-15 10:52N 26°35' W 055°55'1 4.6 26.4
2017-Nov-15 10:45N 26°35' W 055°55'1 0.5 26.4
2017-Nov-15 09:43N 26°35' W 055°55'0 0.0
2017-Nov-15 09:13N 26°35' W 055°55'0 0.0 26.4
2017-Nov-15 09:07N 26°35' W 055°55'1 0.8 26.4
2017-Nov-15 08:28N 26°35' W 055°55'110.7 26.4
2017-Nov-15 08:25N 26°35' W 055°54'1 0.7 26.4
2017-Nov-15 07:30N 26°34' W 055°54'0 0.0 26.4
2017-Nov-15 06:52N 26°34' W 055°54'1 6.0 26.4
2017-Nov-15 06:46N 26°35' W 055°54'2 0.4 26.4
2017-Nov-15 02:18N 26°34' W 055°52'0 0.0 26.4
2017-Nov-15 02:13N 26°34' W 055°52'0 0.0 26.4
2017-Nov-15 01:28N 26°34' W 055°52'1 5.1 26.4
2017-Nov-15 01:21N 26°35' W 055°52'0 0.0 26.4
2017-Nov-15 00:40N 26°35' W 055°52'1 8.0 26.4
2017-Nov-15 00:36N 26°35' W 055°52'0 0.0 26.4
2017-Nov-14 23:48N 26°35' W 055°52'0 0.0 26.4
2017-Nov-14 23:45N 26°35' W 055°52'0 0.0 26.4
2017-Nov-14 23:40N 26°35' W 055°52'0 0.0 26.4
2017-Nov-14 22:58N 26°35' W 055°52'110.7 26.4
2017-Nov-14 22:55N 26°35' W 055°52'0 0.0 26.4
2017-Nov-14 22:04N 26°35' W 055°52'121.5 26.5
2017-Nov-14 22:01N 26°35' W 055°51'116.1 26.5
2017-Nov-14 21:57N 26°35' W 055°52'1 2.0 26.5
2017-Nov-14 21:24N 26°35' W 055°51'0 0.0 26.5
2017-Nov-14 21:19N 26°35' W 055°51'0 0.0 26.5
2017-Nov-14 21:10N 26°35' W 055°51'0 0.0 26.5
2017-Nov-14 20:22N 26°35' W 055°51'1 1.5 26.5
2017-Nov-14 20:01N 26°35' W 055°50'0 0.0 26.5
2017-Nov-14 19:58N 26°35' W 055°50'116.1 26.5
2017-Nov-14 19:55N 26°35' W 055°50'0 0.0 26.5
2017-Nov-14 18:22N 26°35' W 055°50'0 0.0 26.5
2017-Nov-14 18:13N 26°35' W 055°50'2 0.7 26.5
2017-Nov-14 15:04N 26°36' W 055°47'1 0.9 26.4
2017-Nov-14 14:13N 26°35' W 055°47'1 5.1 26.5
2017-Nov-14 14:06N 26°36' W 055°47'1 1.0 26.5
2017-Nov-14 13:30N 26°35' W 055°47'0 0.0 26.5
2017-Nov-14 13:24N 26°35' W 055°47'110.7 26.5
2017-Nov-14 13:21N 26°35' W 055°46'1 6.4 26.5
2017-Nov-14 13:16N 26°35' W 055°46'1 0.8 26.5
2017-Nov-14 12:30N 26°35' W 055°46'0 0.0 26.5
2017-Nov-14 11:46N 26°35' W 055°46'1 5.4 26.5
2017-Nov-14 11:40N 26°35' W 055°45'0 0.0 26.5
2017-Nov-14 10:03N 26°35' W 055°45'0 0.0 26.5
2017-Nov-14 09:58N 26°35' W 055°45'1 2.7 26.5
2017-Nov-14 09:46N 26°35' W 055°44'0 0.0 26.5
2017-Nov-14 09:43N 26°35' W 055°44'1 8.0 26.5
2017-Nov-14 09:39N 26°35' W 055°45'1 0.5 26.5
2017-Nov-14 08:40N 26°35' W 055°44'1 1.3 26.5
2017-Nov-14 08:04N 26°34' W 055°44'1 0.5 26.5
2017-Nov-14 06:58N 26°35' W 055°44'439.4 230 / 251017.1 8.1 5.126.6
2017-Nov-14 06:52N 26°36' W 055°40'0 0.0 210 / 81018.8 2.9 0.826.6
2017-Nov-14 02:36N 26°36' W 055°40'0 0.0
2017-Nov-14 01:43N 26°36' W 055°40'0 0.0 26.6
2017-Nov-14 01:40N 26°36' W 055°40'0 0.0 26.6
2017-Nov-14 00:58N 26°36' W 055°40'132.2 26.6
2017-Nov-14 00:57N 26°36' W 055°39'1 1.0 26.6
2017-Nov-14 00:09N 26°37' W 055°40'0 0.0 26.6
2017-Nov-13 23:58N 26°37' W 055°40'0 0.0 26.6
2017-Nov-13 23:21N 26°37' W 055°40'0 0.0 26.6
2017-Nov-13 23:19N 26°37' W 055°40'0 0.0 26.6
2017-Nov-13 23:13N 26°37' W 055°40'1 6.0 26.6
2017-Nov-13 23:07N 26°37' W 055°40'1 1.0 26.6
2017-Nov-13 22:36N 26°37' W 055°39'1 1.4 26.6
2017-Nov-13 21:40N 26°38' W 055°38'1 4.0 26.6
2017-Nov-13 21:31N 26°38' W 055°38'1 2.1 26.6
2017-Nov-13 20:54N 26°39' W 055°38'0 0.0 26.6
2017-Nov-13 20:13N 26°39' W 055°38'0 0.0 26.6
2017-Nov-13 20:10N 26°39' W 055°38'119.7 26.6
2017-Nov-13 20:06N 26°40' W 055°37'1 0.3 26.6
2017-Nov-13 18:34N 26°40' W 055°37'0 0.0 26.7
2017-Nov-13 18:30N 26°40' W 055°37'3 1.8 26.7
2017-Nov-13 16:46N 26°43' W 055°35'0 0.0
2017-Nov-13 14:33N 26°43' W 055°35'0 0.0 26.6
2017-Nov-13 13:48N 26°43' W 055°35'0 0.0 26.6
2017-Nov-13 13:42N 26°43' W 055°35'126.3 26.6
2017-Nov-13 13:39N 26°44' W 055°35'0 0.0 26.6
2017-Nov-13 13:30N 26°44' W 055°35'1 2.2 26.6
2017-Nov-13 12:54N 26°43' W 055°35'126.3 26.6
2017-Nov-13 12:51N 26°44' W 055°35'0 0.0 26.6
2017-Nov-13 12:45N 26°44' W 055°35'0 0.0 26.6
2017-Nov-13 12:10N 26°44' W 055°35'1 9.0 26.5
2017-Nov-13 12:06N 26°44' W 055°35'0 0.0 26.5
2017-Nov-13 11:58N 26°44' W 055°35'0 0.0 26.5
2017-Nov-13 11:52N 26°44' W 055°35'111.3 26.5
2017-Nov-13 11:45N 26°45' W 055°34'0 0.0 26.5
2017-Nov-13 10:36N 26°45' W 055°34'1 1.6 26.5
2017-Nov-13 10:13N 26°46' W 055°34'0 0.0 26.5
2017-Nov-13 10:09N 26°46' W 055°34'114.7 26.5
2017-Nov-13 10:04N 26°46' W 055°33'0 0.0 26.5
2017-Nov-13 08:54N 26°46' W 055°33'0 0.0 26.6
2017-Nov-13 08:51N 26°46' W 055°33'0 0.0 26.6
2017-Nov-13 08:37N 26°46' W 055°33'1 8.0 26.6
2017-Nov-13 08:28N 26°47' W 055°33'0 0.0 26.6
2017-Nov-13 07:13N 26°47' W 055°33'0 0.0 26.6
2017-Nov-13 07:09N 26°47' W 055°33'244.5 26.6
2017-Nov-13 07:06N 26°48' W 055°31'0 0.0 26.6
2017-Nov-13 02:09N 26°48' W 055°31'1 9.9 26.6
2017-Nov-13 02:01N 26°49' W 055°30'0 0.0 26.6
2017-Nov-13 01:24N 26°49' W 055°30'0 0.0 26.6
2017-Nov-13 01:18N 26°49' W 055°30'0 0.0 26.6
2017-Nov-13 00:30N 26°49' W 055°30'1 9.0 26.6
2017-Nov-13 00:22N 26°50' W 055°30'0 0.0 26.6
2017-Nov-12 23:43N 26°50' W 055°30'1 5.4 26.6
2017-Nov-12 23:37N 26°50' W 055°29'0 0.0 26.6
2017-Nov-12 23:27N 26°50' W 055°29'0 0.0 26.6
2017-Nov-12 23:24N 26°50' W 055°29'0 0.0 26.6
2017-Nov-12 23:19N 26°50' W 055°29'0 0.0 26.6
2017-Nov-12 23:06N 26°50' W 055°29'0 0.0 26.7
2017-Nov-12 22:58N 26°50' W 055°29'1 1.6 26.7
2017-Nov-12 22:13N 26°52' W 055°29'1 3.6 26.7
2017-Nov-12 22:04N 26°52' W 055°29'0 0.0 26.7
2017-Nov-12 21:45N 26°52' W 055°29'0 0.0 26.7
2017-Nov-12 21:42N 26°52' W 055°29'0 0.0 26.7
2017-Nov-12 21:27N 26°52' W 055°29'1 0.9 26.7
2017-Nov-12 20:33N 26°52' W 055°28'1 4.5 26.7
2017-Nov-12 20:25N 26°53' W 055°28'112.0 26.7
2017-Nov-12 20:22N 26°52' W 055°28'1 6.0 26.7
2017-Nov-12 20:16N 26°53' W 055°28'0 0.0 26.7
2017-Nov-12 18:43N 26°53' W 055°28'1 8.0 26.6
2017-Nov-12 18:37N 26°53' W 055°28'2 1.3 26.6
2017-Nov-12 16:58N 26°55' W 055°26'1 0.3 26.6
2017-Nov-12 14:54N 26°55' W 055°26'116.1 26.4
2017-Nov-12 14:51N 26°55' W 055°26'0 0.0 26.4
2017-Nov-12 14:07N 26°55' W 055°26'112.0 26.3
2017-Nov-12 14:01N 26°56' W 055°26'0 0.0 26.3
2017-Nov-12 13:12N 26°56' W 055°26'0 0.0 25.9
2017-Nov-12 12:28N 26°56' W 055°26'1 6.0 25.8
2017-Nov-12 12:22N 26°57' W 055°26'1 1.3 25.8
2017-Nov-12 11:58N 26°57' W 055°25'0 0.0 25.8
2017-Nov-12 11:28N 26°57' W 055°25'0 0.0 25.8
2017-Nov-12 10:57N 26°57' W 055°25'0 0.0 25.8
2017-Nov-12 10:46N 26°57' W 055°25'   070 / 141016.0 24.621.425.8
Track history (hours):
 
Tides and Currents Weather Stations Pressure Air Temp Water Temp Dewpoint Dewpoint Depression Visibility Wind Speed Wind Dir Waves Ship Positions

Ao Chao Yang 13516

Last reported at 2017-Nov-22 10:34 UTC. Time now 2017-Nov-22 11:20 UTC.
Position N 26°17' W 056°59'.

Length 20 m.

Type: Fishing. MMSI: 412469022.

Water temperature 26.7 ° C

Date/timePositionNaut miles runAvg speedWind from/ knotsBaromVisibWave heightAir tempDewpointWater temp
2017-Nov-22 10:34N 26°17' W 056°59'1 4.6 26.7
2017-Nov-22 10:27N 26°17' W 056°58'0 0.0 26.7
2017-Nov-22 10:10N 26°17' W 056°58'0 0.0 26.7
2017-Nov-22 10:04N 26°17' W 056°58'1 1.0 26.7
2017-Nov-22 08:57N 26°17' W 056°57'0 0.0 26.7
2017-Nov-22 08:49N 26°17' W 056°57'110.8 26.7
2017-Nov-22 08:46N 26°17' W 056°56'0 0.0 26.7
2017-Nov-22 07:12N 26°17' W 056°56'323.0 26.7
2017-Nov-22 07:03N 26°16' W 056°53'0 0.0 26.7
2017-Nov-22 02:22N 26°16' W 056°53'0 0.0 26.9
2017-Nov-22 02:18N 26°16' W 056°53'1 6.5 26.9
2017-Nov-22 02:13N 26°16' W 056°52'0 0.0 26.9
2017-Nov-22 01:37N 26°16' W 056°52'0 0.0 26.9
2017-Nov-22 01:31N 26°16' W 056°52'1 1.0 26.9
2017-Nov-22 00:43N 26°15' W 056°52'1 6.9 26.9
2017-Nov-22 00:36N 26°16' W 056°51'0 0.0 26.9
2017-Nov-21 23:57N 26°16' W 056°51'0 0.0 26.9
2017-Nov-21 23:54N 26°16' W 056°51'1 6.0 26.9
2017-Nov-21 23:48N 26°16' W 056°51'0 0.0 26.9
2017-Nov-21 23:24N 26°16' W 056°51'116.1 26.9
2017-Nov-21 23:21N 26°16' W 056°50'112.9 26.9
2017-Nov-21 23:16N 26°16' W 056°49'0 0.0 26.9
2017-Nov-21 23:13N 26°16' W 056°49'1 4.0 26.9
2017-Nov-21 22:57N 26°16' W 056°50'1 0.9 26.9
2017-Nov-21 21:48N 26°16' W 056°49'1 4.0 26.9
2017-Nov-21 21:40N 26°16' W 056°50'0 0.0 26.9
2017-Nov-21 21:39N 26°16' W 056°50'1 0.8 26.9
2017-Nov-21 20:22N 26°16' W 056°49'0 0.0 26.9
2017-Nov-21 20:19N 26°16' W 056°49'112.3 26.9
2017-Nov-21 20:13N 26°16' W 056°47'0 0.0 26.9
2017-Nov-21 18:42N 26°16' W 056°47'212.1 26.9
2017-Nov-21 18:34N 26°16' W 056°46'1 0.7 26.9
2017-Nov-21 16:57N 26°16' W 056°44'1 0.4 26.9
2017-Nov-21 15:04N 26°16' W 056°44'0 0.0 26.8
2017-Nov-21 14:22N 26°16' W 056°44'216.1 26.7
2017-Nov-21 14:16N 26°16' W 056°42'0 0.0 26.7
2017-Nov-21 13:37N 26°16' W 056°42'0 0.0 26.7
2017-Nov-21 13:24N 26°16' W 056°42'0 0.0 26.7
2017-Nov-21 12:42N 26°16' W 056°42'1 8.1 26.7
2017-Nov-21 12:36N 26°15' W 056°41'0 0.0 26.7
2017-Nov-21 12:12N 26°15' W 056°41'0 0.0 26.7
2017-Nov-21 11:58N 26°15' W 056°41'118.5 26.7
2017-Nov-21 11:54N 26°14' W 056°40'0 0.0 26.7
2017-Nov-21 11:43N 26°14' W 056°40'0 0.0 26.7
2017-Nov-21 11:04N 26°14' W 056°40'1 5.4 26.6
2017-Nov-21 10:55N 26°15' W 056°40'0 0.0 26.6
2017-Nov-21 10:36N 26°15' W 056°40'1 3.0 26.6
2017-Nov-21 10:24N 26°16' W 056°40'0 0.0 26.6
2017-Nov-21 10:22N 26°16' W 056°40'0 0.0 26.6
2017-Nov-21 10:13N 26°16' W 056°40'1 1.6 26.6
2017-Nov-21 09:27N 26°15' W 056°38'0 0.0 26.6
2017-Nov-21 09:24N 26°15' W 056°38'110.8 26.6
2017-Nov-21 09:21N 26°15' W 056°38'0 0.0 26.6
2017-Nov-21 08:57N 26°15' W 056°38'121.5 26.6
2017-Nov-21 08:54N 26°15' W 056°37'0 0.0 26.6
2017-Nov-21 08:49N 26°15' W 056°37'0 0.0 26.6
2017-Nov-21 07:45N 26°15' W 056°37'0 0.0 26.6
2017-Nov-21 07:24N 26°15' W 056°37'0 0.0 26.6
2017-Nov-21 07:18N 26°15' W 056°37'334.4 26.6
2017-Nov-21 07:12N 26°16' W 056°33'0 0.0 26.6
2017-Nov-21 02:42N 26°16' W 056°33'116.1 26.6
2017-Nov-21 02:39N 26°16' W 056°32'1 1.2 26.6
2017-Nov-21 01:57N 26°16' W 056°32'0 0.0 26.6
2017-Nov-21 01:49N 26°16' W 056°32'0 0.0 26.6
2017-Nov-21 00:58N 26°16' W 056°32'148.4 26.6
2017-Nov-21 00:57N 26°17' W 056°31'0 0.0 26.6
2017-Nov-21 00:19N 26°17' W 056°31'1 4.6 26.6
2017-Nov-21 00:12N 26°17' W 056°31'0 0.0 26.6
2017-Nov-20 23:51N 26°17' W 056°31'0 0.0 26.7
2017-Nov-20 23:33N 26°17' W 056°31'1 6.0 26.6
2017-Nov-20 23:25N 26°17' W 056°30'1 8.1 26.6
2017-Nov-20 23:19N 26°17' W 056°31'116.1 26.6
2017-Nov-20 23:16N 26°17' W 056°30'1 0.5 26.6
2017-Nov-20 22:13N 26°17' W 056°29'1 3.6 26.7
2017-Nov-20 22:04N 26°17' W 056°30'1 3.0 26.7
2017-Nov-20 21:52N 26°18' W 056°30'0 0.0 26.7
2017-Nov-20 21:48N 26°18' W 056°30'110.8 26.7
2017-Nov-20 21:45N 26°18' W 056°29'0 0.0 26.7
2017-Nov-20 20:31N 26°18' W 056°29'1 0.7 26.7
2017-Nov-20 18:54N 26°19' W 056°29'0 0.0 26.7
2017-Nov-20 18:46N 26°19' W 056°29'1 0.4 26.7
2017-Nov-20 17:10N 26°20' W 056°29'0 0.0 26.7
2017-Nov-20 15:24N 26°20' W 056°29'0 0.0 26.7
2017-Nov-20 14:42N 26°20' W 056°29'0 0.0 26.7
2017-Nov-20 14:39N 26°20' W 056°29'0 0.0 26.7
2017-Nov-20 14:34N 26°20' W 056°29'0 0.0 26.7
2017-Nov-20 13:46N 26°20' W 056°29'1 0.7 26.7
2017-Nov-20 12:58N 26°20' W 056°30'1 1.1 26.7
2017-Nov-20 12:13N 26°19' W 056°29'0 0.0 26.7
2017-Nov-20 12:12N 26°19' W 056°29'0 0.0 26.7
2017-Nov-20 12:07N 26°19' W 056°29'0 0.0 26.7
2017-Nov-20 12:03N 26°19' W 056°29'0 0.0 26.7
2017-Nov-20 10:34N 26°19' W 056°29'0 0.0 26.6
2017-Nov-20 10:27N 26°19' W 056°29'1 1.2 26.7
2017-Nov-20 09:57N 26°19' W 056°29'0 0.0 26.7
2017-Nov-20 09:51N 26°19' W 056°29'0 0.0 26.7
2017-Nov-20 09:12N 26°19' W 056°29'112.3 26.6
2017-Nov-20 09:06N 26°18' W 056°28'0 0.0 26.6
2017-Nov-20 08:13N 26°18' W 056°28'1 0.8 26.6
2017-Nov-20 07:31N 26°18' W 056°28'1 8.1 26.6
2017-Nov-20 07:27N 26°18' W 056°28'4 2.6 26.6
2017-Nov-20 05:48N 26°17' W 056°23'0 0.0 26.6
2017-Nov-20 02:13N 26°17' W 056°23'164.6 26.7
2017-Nov-20 02:12N 26°17' W 056°22'0 0.0 26.7
2017-Nov-20 01:25N 26°17' W 056°22'0 0.0 26.6
2017-Nov-20 01:18N 26°17' W 056°22'1 0.8 26.6
2017-Nov-20 00:39N 26°17' W 056°22'1 5.4 26.6
2017-Nov-20 00:33N 26°17' W 056°21'1 1.0 26.6
2017-Nov-19 23:45N 26°18' W 056°20'0 0.0 26.6
2017-Nov-19 23:40N 26°18' W 056°20'121.5 26.6
2017-Nov-19 23:37N 26°18' W 056°19'0 0.0 26.6
2017-Nov-19 22:48N 26°18' W 056°19'1 6.0 26.6
2017-Nov-19 22:40N 26°19' W 056°19'116.1 26.6
2017-Nov-19 22:37N 26°18' W 056°19'1 5.4 26.6
2017-Nov-19 22:28N 26°19' W 056°19'0 0.0 26.6
2017-Nov-19 22:04N 26°19' W 056°19'110.6 26.6
2017-Nov-19 21:57N 26°19' W 056°17'0 0.0 26.6
2017-Nov-19 21:09N 26°19' W 056°17'0 0.0 26.6
2017-Nov-19 20:43N 26°19' W 056°17'5 2.7 26.6
2017-Nov-19 18:58N 26°23' W 056°15'0 0.0 26.6
2017-Nov-19 17:22N 26°23' W 056°15'2 1.0 26.6
2017-Nov-19 14:58N 26°26' W 056°14'1 1.0 26.5
2017-Nov-19 14:09N 26°26' W 056°14'1 9.2 26.5
2017-Nov-19 14:01N 26°27' W 056°15'0 0.0 26.5
2017-Nov-19 13:25N 26°27' W 056°15'1 5.4 26.6
2017-Nov-19 13:19N 26°27' W 056°14'1 1.2 26.6
2017-Nov-19 12:21N 26°28' W 056°14'1 0.8 26.5
2017-Nov-19 10:46N 26°29' W 056°16'0 0.0 26.5
2017-Nov-19 10:40N 26°29' W 056°16'0 0.0 26.5
2017-Nov-19 10:28N 26°29' W 056°16'1 3.6 26.5
2017-Nov-19 10:19N 26°29' W 056°16'0 0.0 26.5
2017-Nov-19 09:46N 26°29' W 056°16'0 0.0 26.4
2017-Nov-19 09:39N 26°29' W 056°16'0 0.0 26.4
2017-Nov-19 09:22N 26°29' W 056°16'0 0.0 26.4
2017-Nov-19 09:18N 26°29' W 056°16'0 0.0 26.4
2017-Nov-19 08:49N 26°29' W 056°16'1 4.6 26.4
2017-Nov-19 08:42N 26°29' W 056°17'1 0.6 26.4
2017-Nov-19 07:43N 26°28' W 056°17'0 0.0 26.5
2017-Nov-19 07:42N 26°28' W 056°17'0 0.0 26.4
2017-Nov-19 07:36N 26°28' W 056°17'0 0.0 26.4
2017-Nov-19 06:03N 26°28' W 056°17'219.3 26.4
2017-Nov-19 05:58N 26°28' W 056°15'0 0.0 26.4
2017-Nov-19 02:33N 26°28' W 056°15'0 0.0
2017-Nov-19 01:45N 26°28' W 056°15'211.5 26.2
2017-Nov-19 01:36N 26°28' W 056°13'0 0.0 26.2
2017-Nov-19 00:58N 26°28' W 056°13'0 0.0 26.2
2017-Nov-19 00:57N 26°28' W 056°13'0 0.0 26.2
2017-Nov-19 00:54N 26°28' W 056°13'0 0.0 26.2
2017-Nov-19 00:04N 26°28' W 056°13'0 0.0 26.2
2017-Nov-19 00:01N 26°28' W 056°13'0 0.0 26.2
2017-Nov-18 23:55N 26°28' W 056°13'0 0.0 26.2
2017-Nov-18 23:49N 26°28' W 056°13'1 0.9 26.2
2017-Nov-18 23:13N 26°28' W 056°13'1 2.1 26.2
2017-Nov-18 22:58N 26°28' W 056°12'1 0.7 26.2
2017-Nov-18 22:13N 26°28' W 056°11'112.1 26.1
2017-Nov-18 22:09N 26°28' W 056°11'1 1.2 26.1
2017-Nov-18 21:40N 26°28' W 056°11'1 1.8 26.1
2017-Nov-18 21:22N 26°28' W 056°10'0 0.0 26.1
2017-Nov-18 21:18N 26°28' W 056°10'1 9.7 26.1
2017-Nov-18 21:13N 26°28' W 056°10'0 0.0 26.1
2017-Nov-18 20:55N 26°28' W 056°10'3 1.6 26.1
2017-Nov-18 19:13N 26°29' W 056°07'0 0.0 26.1
2017-Nov-18 19:12N 26°29' W 056°07'2 1.3 26.1
2017-Nov-18 17:36N 26°30' W 056°05'0 0.0 26.1
2017-Nov-18 17:33N 26°30' W 056°05'4 1.5 26.1
2017-Nov-18 14:30N 26°34' W 056°02'1 9.7 26.1
2017-Nov-18 14:25N 26°34' W 056°01'0 0.0 26.1
2017-Nov-18 13:46N 26°34' W 056°01'0 0.0 26.2
2017-Nov-18 13:42N 26°34' W 056°01'1 1.5 26.2
2017-Nov-18 12:48N 26°35' W 056°02'0 0.0 26.2
2017-Nov-18 12:43N 26°35' W 056°02'0 0.0 26.2
2017-Nov-18 12:40N 26°35' W 056°02'0 0.0 26.2
2017-Nov-18 12:36N 26°35' W 056°02'0 0.0 26.2
2017-Nov-18 12:33N 26°35' W 056°02'0 0.0 26.2
2017-Nov-18 12:03N 26°35' W 056°02'0 0.0 26.2
2017-Nov-18 11:46N 26°35' W 056°02'0 0.0 26.2
2017-Nov-18 10:57N 26°35' W 056°02'1 7.2 26.2
2017-Nov-18 10:52N 26°36' W 056°02'0 0.0 26.2
2017-Nov-18 10:10N 26°36' W 056°02'0 0.0 26.1
2017-Nov-18 10:03N 26°36' W 056°02'0 0.0 26.1
2017-Nov-18 09:34N 26°36' W 056°02'1 8.0 26.1
2017-Nov-18 09:30N 26°36' W 056°02'1 3.6 26.1
2017-Nov-18 09:21N 26°36' W 056°02'1 4.0 26.1
2017-Nov-18 09:13N 26°36' W 056°02'0 0.0 26.1
2017-Nov-18 07:55N 26°36' W 056°02'173.8 26.1
2017-Nov-18 07:54N 26°35' W 056°04'1 3.2 26.1
2017-Nov-18 07:39N 26°36' W 056°03'1 0.6 26.1
2017-Nov-18 06:13N 26°35' W 056°04'178.9 26.1
2017-Nov-18 06:12N 26°37' W 056°04'3 0.6 26.1
2017-Nov-18 02:06N 26°34' W 056°05'0 0.0 26.2
2017-Nov-18 01:58N 26°34' W 056°05'1 1.6 26.2
2017-Nov-18 01:13N 26°34' W 056°07'1 0.7 26.2
2017-Nov-18 00:25N 26°34' W 056°06'1 6.0 26.1
2017-Nov-18 00:19N 26°33' W 056°06'0 0.0 26.1
2017-Nov-18 00:07N 26°33' W 056°06'0 0.0 26.2
2017-Nov-18 00:01N 26°33' W 056°06'1 2.4 26.2
2017-Nov-17 23:46N 26°32' W 056°06'0 0.0 26.2
2017-Nov-17 23:40N 26°32' W 056°06'0 0.0 26.2
2017-Nov-17 23:37N 26°32' W 056°06'112.1 26.2
2017-Nov-17 23:33N 26°32' W 056°05'0 0.0 26.2
2017-Nov-17 23:24N 26°32' W 056°05'0 0.0 26.2
2017-Nov-17 22:28N 26°32' W 056°05'0 0.0 26.2
2017-Nov-17 22:12N 26°32' W 056°05'110.7 26.2
2017-Nov-17 22:09N 26°32' W 056°05'0 0.0 26.2
2017-Nov-17 21:48N 26°32' W 056°05'211.5 26.2
2017-Nov-17 21:39N 26°31' W 056°03'0 0.0 26.2
2017-Nov-17 21:04N 26°31' W 056°03'0 0.0 26.2
2017-Nov-17 20:30N 26°31' W 056°03'1 2.7 26.2
2017-Nov-17 20:06N 26°31' W 056°02'0 0.0 26.2
2017-Nov-17 19:28N 26°31' W 056°02'0 0.0 26.2
2017-Nov-17 19:25N 26°31' W 056°02'0 0.0 26.2
2017-Nov-17 19:21N 26°31' W 056°02'2 1.0 26.2
2017-Nov-17 17:43N 26°31' W 056°00'3 1.2 26.1
2017-Nov-17 14:51N 26°32' W 055°56'1 9.7 26.2
2017-Nov-17 14:46N 26°33' W 055°56'0 0.0 26.2
2017-Nov-17 14:06N 26°33' W 055°56'0 0.0 26.2
2017-Nov-17 14:03N 26°33' W 055°56'1 8.1 26.2
2017-Nov-17 13:57N 26°34' W 055°55'0 0.0 26.2
2017-Nov-17 13:10N 26°34' W 055°55'0 0.0 26.2
2017-Nov-17 13:06N 26°34' W 055°55'1 1.9 26.2
2017-Nov-17 12:49N 26°34' W 055°55'0 0.0 26.2
2017-Nov-17 12:45N 26°34' W 055°55'0 0.0 26.2
2017-Nov-17 12:25N 26°34' W 055°55'0 0.0 26.2
2017-Nov-17 12:22N 26°34' W 055°55'0 0.0 26.2
2017-Nov-17 12:12N 26°34' W 055°55'1 0.8 26.2
2017-Nov-17 11:10N 26°34' W 055°54'1 4.6 26.3
2017-Nov-17 11:03N 26°34' W 055°53'1 6.4 26.3
2017-Nov-17 10:58N 26°34' W 055°53'0 0.0 26.3
2017-Nov-17 10:36N 26°34' W 055°53'0 0.0 26.3
2017-Nov-17 10:31N 26°34' W 055°53'1 5.1 26.3
2017-Nov-17 10:24N 26°35' W 055°53'0 0.0 26.3
2017-Nov-17 09:52N 26°35' W 055°53'0 0.0 26.3
2017-Nov-17 09:49N 26°35' W 055°53'110.7 26.3
2017-Nov-17 09:43N 26°35' W 055°52'0 0.0 26.3
2017-Nov-17 08:52N 26°35' W 055°52'0 0.0 26.3
2017-Nov-17 08:12N 26°35' W 055°52'0 0.0 26.4
2017-Nov-17 08:07N 26°35' W 055°52'1 8.2 26.4
2017-Nov-17 07:58N 26°35' W 055°50'0 0.0 26.4
2017-Nov-17 06:24N 26°35' W 055°50'221.0 26.4
2017-Nov-17 06:18N 26°37' W 055°49'0 0.0 26.4
2017-Nov-17 02:25N 26°37' W 055°49'1 9.0 26.4
2017-Nov-17 02:21N 26°38' W 055°49'0 0.0 26.4
2017-Nov-17 01:42N 26°38' W 055°49'1 6.0 26.4
2017-Nov-17 01:34N 26°37' W 055°50'1 1.0 26.4
2017-Nov-17 00:48N 26°38' W 055°49'0 0.0 26.5
2017-Nov-17 00:40N 26°38' W 055°49'0 0.0 26.5
2017-Nov-17 00:13N 26°38' W 055°49'136.0 26.4
2017-Nov-17 00:12N 26°38' W 055°49'0 0.0 26.4
2017-Nov-16 23:57N 26°38' W 055°49'0 0.0 26.4
2017-Nov-16 23:54N 26°38' W 055°49'0 0.0 26.4
2017-Nov-16 23:49N 26°38' W 055°49'0 0.0 26.4
2017-Nov-16 23:04N 26°38' W 055°49'0 0.0 26.5
2017-Nov-16 22:58N 26°38' W 055°49'0 0.0 26.5
2017-Nov-16 22:42N 26°38' W 055°49'0 0.0 26.5
2017-Nov-16 22:34N 26°38' W 055°49'0 0.0 26.5
2017-Nov-16 22:33N 26°38' W 055°49'0 0.0 26.5
2017-Nov-16 22:13N 26°38' W 055°49'1 3.6 26.5
2017-Nov-16 22:04N 26°38' W 055°49'0 0.0 26.5
2017-Nov-16 20:58N 26°38' W 055°49'136.0 26.5
2017-Nov-16 20:57N 26°39' W 055°49'1 1.3 26.5
2017-Nov-16 20:33N 26°39' W 055°49'1 0.6 26.5
2017-Nov-16 19:40N 26°39' W 055°49'0 0.0 26.5
2017-Nov-16 19:37N 26°39' W 055°49'1 8.0 26.5
2017-Nov-16 19:33N 26°39' W 055°49'1 0.5 26.5
2017-Nov-16 17:58N 26°40' W 055°49'0 0.0 26.5
2017-Nov-16 17:55N 26°40' W 055°49'1 6.0 26.5
2017-Nov-16 17:49N 26°39' W 055°49'0 0.0 26.5
2017-Nov-16 15:09N 26°39' W 055°49'124.1 26.4
2017-Nov-16 15:07N 26°40' W 055°48'0 0.0 26.4
2017-Nov-16 14:25N 26°40' W 055°48'1 9.0 26.3
2017-Nov-16 14:21N 26°39' W 055°48'0 0.0 26.3
2017-Nov-16 13:30N 26°39' W 055°48'126.3 26.3
2017-Nov-16 13:27N 26°40' W 055°49'1 1.1 26.3
2017-Nov-16 12:58N 26°40' W 055°48'1 3.2 26.3
2017-Nov-16 12:43N 26°40' W 055°49'0 0.0
2017-Nov-16 12:40N 26°40' W 055°49'0 0.0 26.3
2017-Nov-16 11:48N 26°40' W 055°49'1 1.3 26.3
2017-Nov-16 11:21N 26°40' W 055°49'0 0.0 26.3
2017-Nov-16 11:13N 26°40' W 055°49'0 0.0 26.3
2017-Nov-16 10:58N 26°40' W 055°49'0 0.0 26.3
2017-Nov-16 10:22N 26°40' W 055°49'1 4.0 26.2
2017-Nov-16 10:13N 26°41' W 055°49'0 0.0 26.3
2017-Nov-16 09:34N 26°41' W 055°49'0 0.0 26.2
2017-Nov-16 09:13N 26°41' W 055°49'1 1.2 26.3
2017-Nov-16 08:43N 26°41' W 055°49'1 1.1 26.3
2017-Nov-16 08:13N 26°41' W 055°49'148.3 26.3
2017-Nov-16 08:12N 26°42' W 055°50'0 0.0 26.3
2017-Nov-16 06:40N 26°42' W 055°50'0 0.0 26.4
2017-Nov-16 06:36N 26°42' W 055°50'3 0.8 26.4
2017-Nov-16 02:43N 26°41' W 055°53'0 0.0 26.4
2017-Nov-16 01:58N 26°41' W 055°53'0 0.0 26.4
2017-Nov-16 01:55N 26°41' W 055°53'0 0.0 26.4
2017-Nov-16 01:06N 26°41' W 055°53'115.8 26.4
2017-Nov-16 01:01N 26°40' W 055°54'1 1.2 26.4
2017-Nov-16 00:30N 26°41' W 055°54'0 0.0 26.4
2017-Nov-16 00:22N 26°41' W 055°54'1 3.6 26.4
2017-Nov-16 00:13N 26°41' W 055°55'0 0.0 26.4
2017-Nov-15 23:25N 26°41' W 055°55'0 0.0 26.4
2017-Nov-15 23:21N 26°41' W 055°55'0 0.0 26.4
2017-Nov-15 23:12N 26°41' W 055°55'0 0.0 26.4
2017-Nov-15 23:07N 26°41' W 055°55'1 2.4 26.4
2017-Nov-15 22:52N 26°40' W 055°55'0 0.0 26.4
2017-Nov-15 22:48N 26°40' W 055°55'0 0.0 26.4
2017-Nov-15 22:45N 26°40' W 055°55'0 0.0 26.4
2017-Nov-15 22:37N 26°40' W 055°55'1 0.8 26.4
2017-Nov-15 21:34N 26°40' W 055°55'1 3.2 26.4
2017-Nov-15 21:09N 26°38' W 055°55'0 0.0 26.4
2017-Nov-15 20:54N 26°38' W 055°55'0 0.0 26.4
2017-Nov-15 19:49N 26°38' W 055°55'1 5.4 26.4
2017-Nov-15 19:43N 26°38' W 055°55'1 0.8 26.4
2017-Nov-15 18:10N 26°37' W 055°55'1 4.6 26.4
2017-Nov-15 18:03N 26°37' W 055°55'1 0.2 26.4
2017-Nov-15 15:27N 26°37' W 055°55'1 0.7 26.4
2017-Nov-15 14:42N 26°37' W 055°54'1 9.7 26.4
2017-Nov-15 14:37N 26°36' W 055°55'0 0.0 26.4
2017-Nov-15 13:52N 26°36' W 055°55'0 0.0 26.4
2017-Nov-15 13:51N 26°36' W 055°55'0 0.0 26.4
2017-Nov-15 13:10N 26°36' W 055°55'0 0.0 26.4
2017-Nov-15 13:03N 26°36' W 055°55'0 0.0 26.4
2017-Nov-15 12:58N 26°36' W 055°55'1 0.7 26.4
2017-Nov-15 12:09N 26°36' W 055°55'1 9.7 26.4
2017-Nov-15 12:04N 26°35' W 055°55'0 0.0 26.4
2017-Nov-15 11:33N 26°35' W 055°55'0 0.0 26.4
2017-Nov-15 11:30N 26°35' W 055°55'0 0.0 26.4
2017-Nov-15 11:24N 26°35' W 055°55'1 1.5 26.4
2017-Nov-15 10:52N 26°35' W 055°55'1 4.6 26.4
2017-Nov-15 10:45N 26°35' W 055°55'1 0.5 26.4
2017-Nov-15 09:43N 26°35' W 055°55'0 0.0
2017-Nov-15 09:13N 26°35' W 055°55'0 0.0 26.4
2017-Nov-15 09:07N 26°35' W 055°55'1 0.8 26.4
2017-Nov-15 08:28N 26°35' W 055°55'110.7 26.4
2017-Nov-15 08:25N 26°35' W 055°54'1 0.7 26.4
2017-Nov-15 07:30N 26°34' W 055°54'0 0.0 26.4
2017-Nov-15 06:52N 26°34' W 055°54'1 6.0 26.4
2017-Nov-15 06:46N 26°35' W 055°54'2 0.4 26.4
2017-Nov-15 02:18N 26°34' W 055°52'0 0.0 26.4
2017-Nov-15 02:13N 26°34' W 055°52'0 0.0 26.4
2017-Nov-15 01:28N 26°34' W 055°52'1 5.1 26.4
2017-Nov-15 01:21N 26°35' W 055°52'0 0.0 26.4
2017-Nov-15 00:40N 26°35' W 055°52'1 8.0 26.4
2017-Nov-15 00:36N 26°35' W 055°52'0 0.0 26.4
2017-Nov-14 23:48N 26°35' W 055°52'0 0.0 26.4
2017-Nov-14 23:45N 26°35' W 055°52'0 0.0 26.4
2017-Nov-14 23:40N 26°35' W 055°52'0 0.0 26.4
2017-Nov-14 22:58N 26°35' W 055°52'110.7 26.4
2017-Nov-14 22:55N 26°35' W 055°52'0 0.0 26.4
2017-Nov-14 22:04N 26°35' W 055°52'121.5 26.5
2017-Nov-14 22:01N 26°35' W 055°51'116.1 26.5
2017-Nov-14 21:57N 26°35' W 055°52'1 2.0 26.5
2017-Nov-14 21:24N 26°35' W 055°51'0 0.0 26.5
2017-Nov-14 21:19N 26°35' W 055°51'0 0.0 26.5
2017-Nov-14 21:10N 26°35' W 055°51'0 0.0 26.5
2017-Nov-14 20:22N 26°35' W 055°51'1 1.5 26.5
2017-Nov-14 20:01N 26°35' W 055°50'0 0.0 26.5
2017-Nov-14 19:58N 26°35' W 055°50'116.1 26.5
2017-Nov-14 19:55N 26°35' W 055°50'0 0.0 26.5
2017-Nov-14 18:22N 26°35' W 055°50'0 0.0 26.5
2017-Nov-14 18:13N 26°35' W 055°50'2 0.7 26.5
2017-Nov-14 15:04N 26°36' W 055°47'1 0.9 26.4
2017-Nov-14 14:13N 26°35' W 055°47'1 5.1 26.5
2017-Nov-14 14:06N 26°36' W 055°47'1 1.0 26.5
2017-Nov-14 13:30N 26°35' W 055°47'0 0.0 26.5
2017-Nov-14 13:24N 26°35' W 055°47'110.7 26.5
2017-Nov-14 13:21N 26°35' W 055°46'1 6.4 26.5
2017-Nov-14 13:16N 26°35' W 055°46'1 0.8 26.5
2017-Nov-14 12:30N 26°35' W 055°46'0 0.0 26.5
2017-Nov-14 11:46N 26°35' W 055°46'1 5.4 26.5
2017-Nov-14 11:40N 26°35' W 055°45'0 0.0 26.5
2017-Nov-14 10:03N 26°35' W 055°45'0 0.0 26.5
2017-Nov-14 09:58N 26°35' W 055°45'1 2.7 26.5
2017-Nov-14 09:46N 26°35' W 055°44'0 0.0 26.5
2017-Nov-14 09:43N 26°35' W 055°44'1 8.0 26.5
2017-Nov-14 09:39N 26°35' W 055°45'1 0.5 26.5
2017-Nov-14 08:40N 26°35' W 055°44'1 1.3 26.5
2017-Nov-14 08:04N 26°34' W 055°44'1 0.5 26.5
2017-Nov-14 06:58N 26°35' W 055°44'439.4 230 / 251017.1 8.1 5.126.6
2017-Nov-14 06:52N 26°36' W 055°40'0 0.0 210 / 81018.8 2.9 0.826.6
2017-Nov-14 02:36N 26°36' W 055°40'0 0.0
2017-Nov-14 01:43N 26°36' W 055°40'0 0.0 26.6
2017-Nov-14 01:40N 26°36' W 055°40'0 0.0 26.6
2017-Nov-14 00:58N 26°36' W 055°40'132.2 26.6
2017-Nov-14 00:57N 26°36' W 055°39'1 1.0 26.6
2017-Nov-14 00:09N 26°37' W 055°40'0 0.0 26.6
2017-Nov-13 23:58N 26°37' W 055°40'0 0.0 26.6
2017-Nov-13 23:21N 26°37' W 055°40'0 0.0 26.6
2017-Nov-13 23:19N 26°37' W 055°40'0 0.0 26.6
2017-Nov-13 23:13N 26°37' W 055°40'1 6.0 26.6
2017-Nov-13 23:07N 26°37' W 055°40'1 1.0 26.6
2017-Nov-13 22:36N 26°37' W 055°39'1 1.4 26.6
2017-Nov-13 21:40N 26°38' W 055°38'1 4.0 26.6
2017-Nov-13 21:31N 26°38' W 055°38'1 2.1 26.6
2017-Nov-13 20:54N 26°39' W 055°38'0 0.0 26.6
2017-Nov-13 20:13N 26°39' W 055°38'0 0.0 26.6
2017-Nov-13 20:10N 26°39' W 055°38'119.7 26.6
2017-Nov-13 20:06N 26°40' W 055°37'1 0.3 26.6
2017-Nov-13 18:34N 26°40' W 055°37'0 0.0 26.7
2017-Nov-13 18:30N 26°40' W 055°37'3 1.8 26.7
2017-Nov-13 16:46N 26°43' W 055°35'0 0.0
2017-Nov-13 14:33N 26°43' W 055°35'0 0.0 26.6
2017-Nov-13 13:48N 26°43' W 055°35'0 0.0 26.6
2017-Nov-13 13:42N 26°43' W 055°35'126.3 26.6
2017-Nov-13 13:39N 26°44' W 055°35'0 0.0 26.6
2017-Nov-13 13:30N 26°44' W 055°35'1 2.2 26.6
2017-Nov-13 12:54N 26°43' W 055°35'126.3 26.6
2017-Nov-13 12:51N 26°44' W 055°35'0 0.0 26.6
2017-Nov-13 12:45N 26°44' W 055°35'0 0.0 26.6
2017-Nov-13 12:10N 26°44' W 055°35'1 9.0 26.5
2017-Nov-13 12:06N 26°44' W 055°35'0 0.0 26.5
2017-Nov-13 11:58N 26°44' W 055°35'0 0.0 26.5
2017-Nov-13 11:52N 26°44' W 055°35'111.3 26.5
2017-Nov-13 11:45N 26°45' W 055°34'0 0.0 26.5
2017-Nov-13 10:36N 26°45' W 055°34'1 1.6 26.5
2017-Nov-13 10:13N 26°46' W 055°34'0 0.0 26.5
2017-Nov-13 10:09N 26°46' W 055°34'114.7 26.5
2017-Nov-13 10:04N 26°46' W 055°33'0 0.0 26.5
2017-Nov-13 08:54N 26°46' W 055°33'0 0.0 26.6
2017-Nov-13 08:51N 26°46' W 055°33'0 0.0 26.6
2017-Nov-13 08:37N 26°46' W 055°33'1 8.0 26.6
2017-Nov-13 08:28N 26°47' W 055°33'0 0.0 26.6
2017-Nov-13 07:13N 26°47' W 055°33'0 0.0 26.6
2017-Nov-13 07:09N 26°47' W 055°33'244.5 26.6
2017-Nov-13 07:06N 26°48' W 055°31'0 0.0 26.6
2017-Nov-13 02:09N 26°48' W 055°31'1 9.9 26.6
2017-Nov-13 02:01N 26°49' W 055°30'0 0.0 26.6
2017-Nov-13 01:24N 26°49' W 055°30'0 0.0 26.6
2017-Nov-13 01:18N 26°49' W 055°30'0 0.0 26.6
2017-Nov-13 00:30N 26°49' W 055°30'1 9.0 26.6
2017-Nov-13 00:22N 26°50' W 055°30'0 0.0 26.6
2017-Nov-12 23:43N 26°50' W 055°30'1 5.4 26.6
2017-Nov-12 23:37N 26°50' W 055°29'0 0.0 26.6
2017-Nov-12 23:27N 26°50' W 055°29'0 0.0 26.6
2017-Nov-12 23:24N 26°50' W 055°29'0 0.0 26.6
2017-Nov-12 23:19N 26°50' W 055°29'0 0.0 26.6
2017-Nov-12 23:06N 26°50' W 055°29'0 0.0 26.7
2017-Nov-12 22:58N 26°50' W 055°29'1 1.6 26.7
2017-Nov-12 22:13N 26°52' W 055°29'1 3.6 26.7
2017-Nov-12 22:04N 26°52' W 055°29'0 0.0 26.7
2017-Nov-12 21:45N 26°52' W 055°29'0 0.0 26.7
2017-Nov-12 21:42N 26°52' W 055°29'0 0.0 26.7
2017-Nov-12 21:27N 26°52' W 055°29'1 0.9 26.7
2017-Nov-12 20:33N 26°52' W 055°28'1 4.5 26.7
2017-Nov-12 20:25N 26°53' W 055°28'112.0 26.7
2017-Nov-12 20:22N 26°52' W 055°28'1 6.0 26.7
2017-Nov-12 20:16N 26°53' W 055°28'0 0.0 26.7
2017-Nov-12 18:43N 26°53' W 055°28'1 8.0 26.6
2017-Nov-12 18:37N 26°53' W 055°28'2 1.3 26.6
2017-Nov-12 16:58N 26°55' W 055°26'1 0.3 26.6
2017-Nov-12 14:54N 26°55' W 055°26'116.1 26.4
2017-Nov-12 14:51N 26°55' W 055°26'0 0.0 26.4
2017-Nov-12 14:07N 26°55' W 055°26'112.0 26.3
2017-Nov-12 14:01N 26°56' W 055°26'0 0.0 26.3
2017-Nov-12 13:12N 26°56' W 055°26'0 0.0 25.9
2017-Nov-12 12:28N 26°56' W 055°26'1 6.0 25.8
2017-Nov-12 12:22N 26°57' W 055°26'1 1.3 25.8
2017-Nov-12 11:58N 26°57' W 055°25'0 0.0 25.8
2017-Nov-12 11:28N 26°57' W 055°25'0 0.0 25.8
2017-Nov-12 10:57N 26°57' W 055°25'0 0.0 25.8
2017-Nov-12 10:46N 26°57' W 055°25'   070 / 141016.0 24.621.425.8

Dump ship's entire track history